Wilson Lake, Indiana
Current Conditions -  °F | °C
As of 11:54 PM on Saturday 20 Dec 2014 (Local Time) from KFWA Reporting Station
Haze Haze  
Wind Chill: 25°   Ceiling: 3100
Heat Index: 30°   Visibility: 5mi
Dew Point: 28°   Wind: 5mph
Humidity: 92%   Direction: 230°SW
Pressure: 30.29"   Gusts: NA
Location:  41.1479°N, 85.4772°W
Report Text: KFWA 210454Z 23004KT 5SM BR BKN031 OVC060 M01/M02 A3029 RMK AO2 SLP266 T10111022 400061044
Loading
Personal Weather Stations






























Interactive Weather Map New forecast layout! Learn more

10-Day Weather Forecast

Advertisements
Track Severe Weather on mobile